createdAt,value
2018-01-25T00:01:35.924Z,79.20
2018-01-25T00:04:04.054Z,79.10
2018-01-25T00:06:32.203Z,79.30
2018-01-25T00:09:00.330Z,79.40
2018-01-25T00:11:28.494Z,79.50
2018-01-25T00:13:56.648Z,79.70
2018-01-25T00:16:24.814Z,79.70
2018-01-25T00:18:53.658Z,79.90
2018-01-25T00:21:22.543Z,79.80
2018-01-25T00:23:51.449Z,79.70
2018-01-25T00:26:20.323Z,79.80
2018-01-25T00:28:49.243Z,79.80
2018-01-25T00:31:17.348Z,79.80
2018-01-25T00:33:45.473Z,79.90
2018-01-25T00:36:14.382Z,80.00
2018-01-25T00:38:42.484Z,80.00
2018-01-25T00:41:10.614Z,80.00
2018-01-25T00:43:38.737Z,80.00
2018-01-25T00:46:06.866Z,80.20
2018-01-25T00:48:34.982Z,80.20
2018-01-25T00:51:03.123Z,80.30
2018-01-25T00:53:31.243Z,80.10
2018-01-25T00:56:00.125Z,79.70
2018-01-25T00:58:28.253Z,79.20
2018-01-25T01:00:56.369Z,79.20
2018-01-25T01:03:24.500Z,78.80
2018-01-25T01:05:52.613Z,78.50
2018-01-25T01:08:20.744Z,77.00
2018-01-25T01:10:48.859Z,76.60
2018-01-25T01:13:16.974Z,77.10
2018-01-25T01:15:45.101Z,77.60
2018-01-25T01:18:13.230Z,77.30
2018-01-25T01:20:41.346Z,77.60
2018-01-25T01:23:09.478Z,76.70
2018-01-25T01:25:37.621Z,77.10
2018-01-25T01:28:05.760Z,77.10
2018-01-25T01:30:33.870Z,77.30
2018-01-25T01:33:02.005Z,77.60
2018-01-25T01:35:30.122Z,77.70
2018-01-25T01:37:58.255Z,77.90
2018-01-25T01:40:27.202Z,78.20
2018-01-25T01:42:55.349Z,78.10
2018-01-25T01:45:23.454Z,78.30
2018-01-25T01:47:51.592Z,78.30
2018-01-25T01:50:19.762Z,78.40
2018-01-25T01:52:47.882Z,78.50
2018-01-25T01:55:16.063Z,78.30
2018-01-25T01:57:44.183Z,78.60
2018-01-25T02:00:12.300Z,78.60
2018-01-25T02:02:40.433Z,78.50
2018-01-25T02:05:08.545Z,78.60
2018-01-25T02:07:36.672Z,78.90
2018-01-25T02:10:04.791Z,79.10
2018-01-25T02:12:32.924Z,78.90
2018-01-25T02:15:01.042Z,79.00
2018-01-25T02:17:29.187Z,79.00
2018-01-25T02:19:57.310Z,79.10
2018-01-25T02:22:26.180Z,79.00
2018-01-25T02:24:54.313Z,78.90
2018-01-25T02:27:22.468Z,78.80
2018-01-25T02:29:50.604Z,78.90
2018-01-25T02:32:18.719Z,79.10
2018-01-25T02:34:46.826Z,79.00
2018-01-25T02:37:14.981Z,79.10
2018-01-25T02:39:43.087Z,79.30
2018-01-25T02:45:09.157Z,79.30
2018-01-25T02:47:38.031Z,79.40
2018-01-25T02:50:06.949Z,79.60
2018-01-25T02:52:35.810Z,79.50
2018-01-25T02:55:04.711Z,79.50
2018-01-25T02:57:33.583Z,79.40
2018-01-25T03:00:02.478Z,80.50
2018-01-25T03:02:31.376Z,79.40
2018-01-25T03:05:00.253Z,79.40
2018-01-25T03:07:28.386Z,79.40
2018-01-25T03:09:56.531Z,79.50
2018-01-25T03:12:24.724Z,79.70
2018-01-25T03:14:52.821Z,79.80
2018-01-25T03:17:20.967Z,79.90
2018-01-25T03:19:49.081Z,79.80
2018-01-25T03:22:17.198Z,80.10
2018-01-25T03:24:45.372Z,80.10
2018-01-25T03:27:14.265Z,80.50
2018-01-25T03:29:42.399Z,80.50
2018-01-25T03:32:11.288Z,80.70
2018-01-25T03:34:39.430Z,80.60
2018-01-25T03:37:07.544Z,80.50
2018-01-25T03:39:36.418Z,80.60
2018-01-25T03:42:05.318Z,80.50
2018-01-25T03:44:34.216Z,80.50
2018-01-25T03:47:03.231Z,80.40
2018-01-25T03:49:32.082Z,80.30
2018-01-25T03:52:00.254Z,80.30
2018-01-25T03:54:28.375Z,80.50
2018-01-25T03:56:56.495Z,80.20
2018-01-25T03:59:24.646Z,80.20
2018-01-25T04:01:52.768Z,80.80
2018-01-25T04:04:20.917Z,80.10
2018-01-25T04:06:49.057Z,79.30
2018-01-25T04:09:17.173Z,79.60
2018-01-25T04:11:46.067Z,79.20
2018-01-25T04:14:14.192Z,79.20
2018-01-25T04:16:42.319Z,78.90
2018-01-25T04:19:10.464Z,78.80
2018-01-25T04:21:39.358Z,79.40
2018-01-25T04:24:07.501Z,78.80
2018-01-25T04:26:35.761Z,78.80
2018-01-25T04:29:03.883Z,78.70
2018-01-25T04:31:32.173Z,78.70
2018-01-25T04:34:00.284Z,78.80
2018-01-25T04:36:28.408Z,78.70
2018-01-25T04:38:57.342Z,78.50
2018-01-25T04:41:25.458Z,78.50
2018-01-25T04:43:53.588Z,78.70
2018-01-25T04:46:21.705Z,78.60
2018-01-25T04:48:49.874Z,78.70
2018-01-25T04:51:18.023Z,78.60
2018-01-25T04:53:46.138Z,78.70
2018-01-25T04:56:15.057Z,78.90
2018-01-25T04:58:43.182Z,78.90
2018-01-25T05:01:11.309Z,78.90
2018-01-25T05:03:39.443Z,79.00
2018-01-25T05:06:08.330Z,78.80
2018-01-25T05:08:37.207Z,78.90
2018-01-25T05:11:05.339Z,79.50
2018-01-25T05:13:33.455Z,79.10
2018-01-25T05:16:01.598Z,79.20
2018-01-25T05:18:29.719Z,79.70
2018-01-25T05:20:58.608Z,79.40
2018-01-25T05:23:26.753Z,79.40
2018-01-25T05:25:54.943Z,79.40
2018-01-25T05:28:23.836Z,79.50
2018-01-25T05:30:52.725Z,79.60
2018-01-25T05:33:21.621Z,79.70
2018-01-25T05:35:50.510Z,79.50
2018-01-25T05:38:19.422Z,79.60
2018-01-25T05:40:47.548Z,79.60
2018-01-25T05:43:15.675Z,79.50
2018-01-25T05:45:43.813Z,79.40
2018-01-25T05:48:12.697Z,79.40
2018-01-25T05:50:41.590Z,79.40
2018-01-25T05:53:09.696Z,79.30
2018-01-25T05:55:37.847Z,79.30
2018-01-25T05:58:06.861Z,78.80
2018-01-25T06:00:35.715Z,78.80
2018-01-25T06:03:04.624Z,78.20
2018-01-25T06:05:33.501Z,78.40
2018-01-25T06:08:02.426Z,78.20
2018-01-25T06:10:30.552Z,78.20
2018-01-25T06:12:59.445Z,78.10
2018-01-25T06:15:27.585Z,78.10
2018-01-25T06:17:55.727Z,77.10
2018-01-25T06:20:23.860Z,77.50
2018-01-25T06:22:52.743Z,77.70
2018-01-25T06:25:20.886Z,77.60
2018-01-25T06:27:48.993Z,77.40
2018-01-25T06:30:17.886Z,77.50
2018-01-25T06:32:46.777Z,77.30
2018-01-25T06:35:15.686Z,77.20
2018-01-25T06:37:43.818Z,77.20
2018-01-25T06:40:11.946Z,77.20
2018-01-25T06:42:40.090Z,77.00
2018-01-25T06:45:08.976Z,76.70
2018-01-25T06:47:37.902Z,76.60
2018-01-25T06:50:06.754Z,75.80
2018-01-25T06:52:35.649Z,75.10
2018-01-25T06:55:04.552Z,75.70
2018-01-25T06:57:32.664Z,75.70
2018-01-25T07:00:00.799Z,75.90
2018-01-25T07:02:28.924Z,75.90
2018-01-25T07:04:57.056Z,75.80
2018-01-25T07:07:25.184Z,75.50
2018-01-25T07:09:53.339Z,75.70
2018-01-25T07:12:21.499Z,75.50
2018-01-25T07:14:49.626Z,75.60
2018-01-25T07:17:17.743Z,75.30
2018-01-25T07:19:45.875Z,75.40
2018-01-25T07:22:14.740Z,74.90
2018-01-25T07:24:43.627Z,75.40
2018-01-25T07:27:11.762Z,75.40
2018-01-25T07:29:39.881Z,75.20
2018-01-25T07:32:08.782Z,75.20
2018-01-25T07:34:37.662Z,75.00
2018-01-25T07:37:06.554Z,75.00
2018-01-25T07:39:34.708Z,75.00
2018-01-25T07:42:02.834Z,75.20
2018-01-25T07:44:31.001Z,75.50
2018-01-25T07:46:59.109Z,74.90
2018-01-25T07:49:27.259Z,75.10
2018-01-25T07:51:55.393Z,74.70
2018-01-25T07:54:24.349Z,74.90
2018-01-25T07:56:52.445Z,74.90
2018-01-25T07:59:21.337Z,74.40
2018-01-25T08:01:50.237Z,74.40
2018-01-25T08:04:18.370Z,74.40
2018-01-25T08:06:46.500Z,74.00
2018-01-25T08:09:14.616Z,74.20
2018-01-25T08:11:42.746Z,73.60
2018-01-25T08:14:10.879Z,72.80
2018-01-25T08:16:45.549Z,72.50
2018-01-25T08:19:13.682Z,72.40
2018-01-25T08:21:42.578Z,72.50
2018-01-25T08:24:11.468Z,71.90
2018-01-25T08:26:40.350Z,71.90
2018-01-25T08:29:09.281Z,72.30
2018-01-25T08:31:37.552Z,72.20
2018-01-25T08:34:05.662Z,72.00
2018-01-25T08:36:35.293Z,71.30
2018-01-25T08:39:04.201Z,70.90
2018-01-25T08:41:33.227Z,70.30
2018-01-25T08:44:01.963Z,70.20
2018-01-25T08:46:30.856Z,70.10
2018-01-25T08:48:59.741Z,70.10
2018-01-25T08:51:28.635Z,69.90
2018-01-25T08:53:57.640Z,69.50
2018-01-25T08:56:25.779Z,69.50
2018-01-25T08:58:55.411Z,68.90
2018-01-25T09:01:24.314Z,68.20
2018-01-25T09:03:52.431Z,68.20
2018-01-25T09:06:20.569Z,69.30
2018-01-25T09:08:48.695Z,68.20
2018-01-25T09:11:16.821Z,68.20
2018-01-25T09:13:44.954Z,68.10
2018-01-25T09:16:13.076Z,67.80
2018-01-25T09:18:41.226Z,67.60
2018-01-25T09:21:09.362Z,66.70
2018-01-25T09:23:37.494Z,67.10
2018-01-25T09:26:05.586Z,66.20
2018-01-25T09:28:33.686Z,66.70
2018-01-25T09:31:02.580Z,65.30
2018-01-25T09:33:30.713Z,65.30
2018-01-25T09:35:58.861Z,65.50
2018-01-25T09:38:26.974Z,65.00
2018-01-25T09:40:55.103Z,63.60
2018-01-25T09:43:23.217Z,62.60
2018-01-25T09:45:51.351Z,61.10
2018-01-25T09:48:19.470Z,61.00
2018-01-25T09:50:47.591Z,60.60
2018-01-25T09:53:15.709Z,60.40
2018-01-25T09:55:43.861Z,60.90
2018-01-25T09:58:12.006Z,60.40
2018-01-25T10:00:40.860Z,59.30
2018-01-25T10:03:09.745Z,60.20
2018-01-25T10:05:38.635Z,58.30
2018-01-25T10:08:06.769Z,58.30
2018-01-25T10:10:34.879Z,57.40
2018-01-25T10:13:02.998Z,58.10
2018-01-25T10:15:31.148Z,59.00
2018-01-25T10:18:00.033Z,58.00
2018-01-25T10:20:29.764Z,55.00
2018-01-25T10:22:57.873Z,54.40
2018-01-25T10:25:26.030Z,55.20
2018-01-25T10:27:54.161Z,53.40
2018-01-25T10:30:23.151Z,53.50
2018-01-25T10:32:52.031Z,52.50
2018-01-25T10:35:20.923Z,51.60
2018-01-25T10:37:49.832Z,51.20
2018-01-25T10:40:18.712Z,54.20
2018-01-25T10:42:47.627Z,51.10
2018-01-25T10:45:15.739Z,51.10
2018-01-25T10:47:43.883Z,51.70
2018-01-25T10:50:12.052Z,48.50
2018-01-25T10:52:40.776Z,48.00
2018-01-25T10:55:08.930Z,46.70
2018-01-25T10:57:37.058Z,47.10
2018-01-25T11:00:05.954Z,44.00
2018-01-25T11:02:34.077Z,44.00
2018-01-25T11:05:02.215Z,43.30
2018-01-25T11:07:30.342Z,42.70
2018-01-25T11:09:58.475Z,42.20
2018-01-25T11:12:26.608Z,41.60
2018-01-25T11:14:54.802Z,41.70
2018-01-25T11:17:22.916Z,40.30
2018-01-25T11:19:51.034Z,43.30
2018-01-25T11:22:19.179Z,40.00
2018-01-25T11:24:48.076Z,37.10
2018-01-25T11:27:17.063Z,34.50
2018-01-25T11:29:45.963Z,34.30
2018-01-25T11:32:14.855Z,33.10
2018-01-25T11:34:43.739Z,34.70
2018-01-25T11:37:12.652Z,33.10
2018-01-25T11:39:40.780Z,33.00
2018-01-25T11:42:08.918Z,33.10
2018-01-25T11:44:37.100Z,37.10
2018-01-25T11:47:05.211Z,35.00
2018-01-25T11:49:34.114Z,34.70
2018-01-25T11:52:03.009Z,33.70
2018-01-25T11:54:31.905Z,31.70
2018-01-25T11:57:00.027Z,31.70
2018-01-25T11:59:28.180Z,30.30
2018-01-25T12:01:56.295Z,33.40
2018-01-25T12:04:25.178Z,31.30
2018-01-25T12:06:53.304Z,31.30
2018-01-25T12:09:21.426Z,31.60
2018-01-25T12:11:50.358Z,29.70
2018-01-25T12:14:18.479Z,29.70
2018-01-25T12:16:46.609Z,29.20
2018-01-25T12:19:14.728Z,30.00
2018-01-25T12:21:43.634Z,32.30
2018-01-25T12:24:12.515Z,32.00
2018-01-25T12:26:41.401Z,32.90
2018-01-25T12:29:10.307Z,35.80
2018-01-25T12:31:39.225Z,38.70
2018-01-25T12:34:07.349Z,38.70
2018-01-25T12:36:35.473Z,32.20
2018-01-25T12:39:03.596Z,30.70
2018-01-25T12:41:32.503Z,31.30
2018-01-25T12:44:01.393Z,30.90
2018-01-25T12:46:29.523Z,30.90
2018-01-25T12:48:57.648Z,30.40
2018-01-25T12:51:25.803Z,31.30
2018-01-25T12:53:53.919Z,34.20
2018-01-25T12:56:22.042Z,32.30
2018-01-25T12:58:50.944Z,31.90
2018-01-25T13:01:19.869Z,31.00
2018-01-25T13:03:47.991Z,31.00
2018-01-25T13:06:16.906Z,39.50
2018-01-25T13:08:45.033Z,39.50
2018-01-25T13:11:13.162Z,35.90
2018-01-25T13:13:41.328Z,37.70
2018-01-25T13:16:10.180Z,38.60
2018-01-25T13:18:38.324Z,38.60
2018-01-25T13:21:06.458Z,38.90
2018-01-25T13:23:34.588Z,33.40
2018-01-25T13:26:02.718Z,35.10
2018-01-25T13:28:30.868Z,36.70
2018-01-25T13:30:59.046Z,33.50
2018-01-25T13:33:32.914Z,40.30
2018-01-25T13:36:01.065Z,40.10
2018-01-25T13:38:29.186Z,42.30
2018-01-25T13:40:57.328Z,42.80
2018-01-25T13:43:25.446Z,44.80
2018-01-25T13:45:53.572Z,39.30
2018-01-25T13:48:21.697Z,44.80
2018-01-25T13:50:49.830Z,42.80
2018-01-25T13:53:17.944Z,45.00
2018-01-25T13:55:46.095Z,51.00
2018-01-25T13:58:14.963Z,43.50
2018-01-25T14:00:43.101Z,43.50
2018-01-25T14:03:11.235Z,46.10
2018-01-25T14:05:39.370Z,42.50
2018-01-25T14:08:07.507Z,40.50
2018-01-25T14:10:35.622Z,40.80
2018-01-25T14:13:04.558Z,43.50
2018-01-25T14:15:32.726Z,43.50
2018-01-25T14:18:00.846Z,44.70
2018-01-25T14:20:28.978Z,42.70
2018-01-25T14:22:57.114Z,44.50
2018-01-25T14:25:26.022Z,46.50
2018-01-25T14:27:54.141Z,46.40
2018-01-25T14:30:22.283Z,49.00
2018-01-25T14:32:50.453Z,49.80
2018-01-25T14:35:18.592Z,50.40
2018-01-25T14:37:47.495Z,53.50
2018-01-25T14:40:15.619Z,53.50
2018-01-25T14:42:43.761Z,45.80
2018-01-25T14:45:11.893Z,50.50
2018-01-25T14:47:40.815Z,48.60
2018-01-25T14:50:08.941Z,48.70
2018-01-25T14:52:37.857Z,49.80
2018-01-25T14:55:06.053Z,49.80
2018-01-25T14:57:34.164Z,51.90
2018-01-25T15:00:02.333Z,54.70
2018-01-25T15:02:30.440Z,53.40
2018-01-25T15:04:59.348Z,57.90
2018-01-25T15:07:27.493Z,57.80
2018-01-25T15:09:56.499Z,59.90
2018-01-25T15:12:25.420Z,59.80
2018-01-25T15:14:53.564Z,59.70
2018-01-25T15:17:21.712Z,60.70
2018-01-25T15:19:49.832Z,61.40
2018-01-25T15:22:18.333Z,61.50
2018-01-25T15:24:46.086Z,60.80
2018-01-25T15:27:19.858Z,61.50
2018-01-25T15:29:48.039Z,62.00
2018-01-25T15:32:16.197Z,62.60
2018-01-25T15:34:45.084Z,62.80
2018-01-25T15:37:14.050Z,64.70
2018-01-25T15:39:43.323Z,64.60
2018-01-25T15:42:11.452Z,64.60
2018-01-25T15:44:40.347Z,65.20
2018-01-25T15:47:09.230Z,65.50
2018-01-25T15:49:38.122Z,65.40
2018-01-25T15:52:07.002Z,65.70
2018-01-25T15:54:35.892Z,65.70
2018-01-25T15:57:04.788Z,65.80
2018-01-25T15:59:33.685Z,66.10
2018-01-25T16:02:02.567Z,65.80
2018-01-25T16:04:31.440Z,65.60
2018-01-25T16:06:59.578Z,65.60
2018-01-25T16:09:27.716Z,65.90
2018-01-25T16:11:56.602Z,66.40
2018-01-25T16:14:24.724Z,66.40
2018-01-25T16:16:52.885Z,66.70
2018-01-25T16:19:21.002Z,67.00
2018-01-25T16:21:49.922Z,67.60
2018-01-25T16:24:18.044Z,68.30
2018-01-25T16:26:46.260Z,67.80
2018-01-25T16:29:15.207Z,68.50
2018-01-25T16:31:43.269Z,69.00
2018-01-25T16:34:11.485Z,68.80
2018-01-25T16:36:40.362Z,69.20
2018-01-25T16:39:09.274Z,69.20
2018-01-25T16:41:38.142Z,69.40
2018-01-25T16:44:07.039Z,69.60
2018-01-25T16:46:35.970Z,69.70
2018-01-25T16:49:04.072Z,69.70
2018-01-25T16:51:32.980Z,69.60
2018-01-25T16:54:01.110Z,69.60
2018-01-25T16:56:29.222Z,70.10
2018-01-25T16:58:57.336Z,69.80
2018-01-25T17:01:25.493Z,69.70
2018-01-25T17:03:54.387Z,70.00
2018-01-25T17:06:22.521Z,69.80
2018-01-25T17:08:50.700Z,70.40
2018-01-25T17:11:18.868Z,70.20
2018-01-25T17:13:47.014Z,69.00
2018-01-25T17:16:15.143Z,69.10
2018-01-25T17:18:44.059Z,69.00
2018-01-25T17:21:13.931Z,68.30
2018-01-25T17:23:42.061Z,68.30
2018-01-25T17:26:10.206Z,68.70
2018-01-25T17:28:38.325Z,68.90
2018-01-25T17:31:06.456Z,69.40
2018-01-25T17:33:34.596Z,69.90
2018-01-25T17:36:03.521Z,69.70
2018-01-25T17:38:31.633Z,69.70
2018-01-25T17:40:59.778Z,69.70
2018-01-25T17:43:27.896Z,70.40
2018-01-25T17:45:56.055Z,69.80
2018-01-25T17:48:24.194Z,70.00
2018-01-25T17:50:52.354Z,69.60
2018-01-25T17:53:20.490Z,70.50
2018-01-25T17:55:49.382Z,70.10
2018-01-25T17:58:18.310Z,70.60
2018-01-25T18:00:46.423Z,70.60
2018-01-25T18:03:14.568Z,70.60
2018-01-25T18:05:42.786Z,70.10
2018-01-25T18:08:11.678Z,71.40
2018-01-25T18:10:40.573Z,71.80
2018-01-25T18:13:09.480Z,71.50
2018-01-25T18:15:38.356Z,71.70
2018-01-25T18:18:07.246Z,71.30
2018-01-25T18:20:36.136Z,71.80
2018-01-25T18:23:04.261Z,71.80
2018-01-25T18:25:32.392Z,72.00
2018-01-25T18:28:00.514Z,71.90
2018-01-25T18:30:29.148Z,72.20
2018-01-25T18:32:57.282Z,72.50
2018-01-25T18:35:25.421Z,72.60
2018-01-25T18:37:53.701Z,72.60
2018-01-25T18:40:21.813Z,73.00
2018-01-25T18:42:50.772Z,73.40
2018-01-25T18:45:19.680Z,73.40
2018-01-25T18:47:48.310Z,73.30
2018-01-25T18:50:17.181Z,73.90
2018-01-25T18:52:45.349Z,73.90
2018-01-25T18:55:14.244Z,73.90
2018-01-25T18:57:43.132Z,74.30
2018-01-25T19:00:12.054Z,74.40
2018-01-25T19:02:40.199Z,74.30
2018-01-25T19:05:09.130Z,74.20
2018-01-25T19:07:37.993Z,74.20
2018-01-25T19:10:06.136Z,74.20
2018-01-25T19:12:34.308Z,74.40
2018-01-25T19:15:03.209Z,74.50
2018-01-25T19:17:31.350Z,74.40
2018-01-25T19:19:59.469Z,74.50
2018-01-25T19:22:28.391Z,74.30
2018-01-25T19:24:56.527Z,74.30
2018-01-25T19:27:25.429Z,74.90
2018-01-25T19:29:54.327Z,75.70
2018-01-25T19:32:22.486Z,74.80
2018-01-25T19:34:50.650Z,75.10
2018-01-25T19:37:18.779Z,75.00
2018-01-25T19:39:47.678Z,74.90
2018-01-25T19:42:15.798Z,74.90
2018-01-25T19:44:43.978Z,75.30
2018-01-25T19:47:12.147Z,75.50
2018-01-25T19:49:40.304Z,75.60
2018-01-25T19:52:08.493Z,75.60
2018-01-25T19:54:36.653Z,75.70
2018-01-25T19:57:05.600Z,75.90
2018-01-25T19:59:33.758Z,75.80
2018-01-25T20:02:02.671Z,75.70
2018-01-25T20:04:30.805Z,75.70
2018-01-25T20:06:59.738Z,75.90
2018-01-25T20:09:27.889Z,75.90
2018-01-25T20:11:56.809Z,75.90
2018-01-25T20:14:24.960Z,75.80
2018-01-25T20:16:53.127Z,75.90
2018-01-25T20:19:21.380Z,75.90
2018-01-25T20:21:49.495Z,76.00
2018-01-25T20:24:17.691Z,76.20
2018-01-25T20:26:45.853Z,76.20
2018-01-25T20:29:14.036Z,76.30
2018-01-25T20:31:42.195Z,76.20
2018-01-25T20:34:10.327Z,76.30
2018-01-25T20:36:39.262Z,76.00
2018-01-25T20:39:07.487Z,76.00
2018-01-25T20:41:35.683Z,76.00
2018-01-25T20:44:04.626Z,76.60
2018-01-25T20:46:32.797Z,76.60
2018-01-25T20:49:01.013Z,76.40
2018-01-25T20:51:29.973Z,76.70
2018-01-25T20:53:58.151Z,76.70
2018-01-25T20:56:26.339Z,76.60
2018-01-25T20:58:55.270Z,76.60
2018-01-25T21:01:23.447Z,76.60
2018-01-25T21:03:51.606Z,76.30
2018-01-25T21:06:19.755Z,76.60
2018-01-25T21:08:48.662Z,76.70
2018-01-25T21:11:16.855Z,76.70
2018-01-25T21:13:45.003Z,76.40
2018-01-25T21:16:13.145Z,76.00
2018-01-25T21:18:41.293Z,75.90
2018-01-25T21:21:09.440Z,76.00
2018-01-25T21:23:37.609Z,76.10
2018-01-25T21:26:05.759Z,76.20
2018-01-25T21:28:34.649Z,76.70
2018-01-25T21:31:03.587Z,76.40
2018-01-25T21:33:31.726Z,76.30
2018-01-25T21:36:00.619Z,77.60
2018-01-25T21:38:28.762Z,77.00
2018-01-25T21:40:57.658Z,76.80
2018-01-25T21:43:25.790Z,76.80
2018-01-25T21:45:53.936Z,77.00
2018-01-25T21:48:22.107Z,76.90
2018-01-25T21:50:50.319Z,77.10
2018-01-25T21:53:18.479Z,77.00
2018-01-25T21:55:46.610Z,76.90
2018-01-25T21:58:14.746Z,76.90
2018-01-25T22:00:42.889Z,76.80
2018-01-25T22:03:11.159Z,76.30
2018-01-25T22:05:39.289Z,76.60
2018-01-25T22:08:08.215Z,76.50
2018-01-25T22:10:36.380Z,76.60
2018-01-25T22:13:05.240Z,76.60
2018-01-25T22:15:34.148Z,76.60
2018-01-25T22:18:02.307Z,76.60
2018-01-25T22:20:31.410Z,76.50
2018-01-25T22:22:59.554Z,76.50
2018-01-25T22:25:27.675Z,76.60
2018-01-25T22:27:55.830Z,76.20
2018-01-25T22:30:23.986Z,76.50
2018-01-25T22:32:52.878Z,76.60
2018-01-25T22:35:21.781Z,76.90
2018-01-25T22:37:49.953Z,76.90
2018-01-25T22:40:18.815Z,76.90
2018-01-25T22:42:46.941Z,76.80
2018-01-25T22:45:15.059Z,77.00
2018-01-25T22:47:43.950Z,77.10
2018-01-25T22:50:12.830Z,77.10
2018-01-25T22:52:41.015Z,77.00
2018-01-25T22:55:09.144Z,76.90
2018-01-25T22:57:37.282Z,76.90
2018-01-25T23:00:06.176Z,76.70
2018-01-25T23:02:35.041Z,76.60
2018-01-25T23:05:03.953Z,76.80
2018-01-25T23:07:32.076Z,76.70
2018-01-25T23:10:00.205Z,76.90
2018-01-25T23:12:28.317Z,76.90
2018-01-25T23:14:56.489Z,76.90
2018-01-25T23:17:24.648Z,76.90
2018-01-25T23:19:52.752Z,76.80
2018-01-25T23:22:20.932Z,77.00
2018-01-25T23:24:49.084Z,76.70
2018-01-25T23:27:17.226Z,76.50
2018-01-25T23:29:45.356Z,76.60
2018-01-25T23:32:13.498Z,76.70
2018-01-25T23:34:41.619Z,76.90
2018-01-25T23:37:10.542Z,77.00
2018-01-25T23:39:38.663Z,77.00
2018-01-25T23:42:06.794Z,77.00
2018-01-25T23:44:34.930Z,77.10
2018-01-25T23:47:03.888Z,77.20
2018-01-25T23:49:33.543Z,77.20
2018-01-25T23:52:01.668Z,77.20
2018-01-25T23:54:29.817Z,77.30
2018-01-25T23:56:57.928Z,77.30
2018-01-25T23:59:26.056Z,77.30
